sensor_id;sensor_type;location;lat;lon;timestamp;P1;durP1;ratioP1;P2;durP2;ratioP2
34982;SDS011;21187;50.976;13.720;2023-04-16T00:02:58;24.00;;;13.48;;
34982;SDS011;21187;50.976;13.720;2023-04-16T00:08:01;28.77;;;14.00;;
34982;SDS011;21187;50.976;13.720;2023-04-16T00:13:03;27.70;;;13.63;;
34982;SDS011;21187;50.976;13.720;2023-04-16T00:18:04;34.55;;;14.60;;
34982;SDS011;21187;50.976;13.720;2023-04-16T00:23:06;28.83;;;13.80;;
34982;SDS011;21187;50.976;13.720;2023-04-16T00:28:08;27.38;;;13.40;;
34982;SDS011;21187;50.976;13.720;2023-04-16T00:33:11;29.48;;;14.98;;
34982;SDS011;21187;50.976;13.720;2023-04-16T00:38:13;28.30;;;13.57;;
34982;SDS011;21187;50.976;13.720;2023-04-16T00:43:21;29.10;;;14.02;;
34982;SDS011;21187;50.976;13.720;2023-04-16T00:48:25;25.85;;;14.05;;
34982;SDS011;21187;50.976;13.720;2023-04-16T00:53:28;24.73;;;12.63;;
34982;SDS011;21187;50.976;13.720;2023-04-16T00:58:33;26.80;;;12.85;;
34982;SDS011;21187;50.976;13.720;2023-04-16T01:08:40;30.63;;;15.55;;
34982;SDS011;21187;50.976;13.720;2023-04-16T01:13:42;28.67;;;14.93;;
34982;SDS011;21187;50.976;13.720;2023-04-16T01:18:44;31.17;;;15.75;;
34982;SDS011;21187;50.976;13.720;2023-04-16T01:23:46;31.35;;;15.55;;
34982;SDS011;21187;50.976;13.720;2023-04-16T01:28:48;30.58;;;15.38;;
34982;SDS011;21187;50.976;13.720;2023-04-16T01:33:50;33.47;;;15.63;;
34982;SDS011;21187;50.976;13.720;2023-04-16T01:38:52;37.22;;;16.23;;
34982;SDS011;21187;50.976;13.720;2023-04-16T01:43:54;35.15;;;15.68;;
34982;SDS011;21187;50.976;13.720;2023-04-16T01:48:57;31.00;;;14.57;;
34982;SDS011;21187;50.976;13.720;2023-04-16T01:53:59;33.00;;;14.93;;
34982;SDS011;21187;50.976;13.720;2023-04-16T01:59:01;32.38;;;15.43;;
34982;SDS011;21187;50.976;13.720;2023-04-16T02:04:09;32.65;;;15.20;;
34982;SDS011;21187;50.976;13.720;2023-04-16T02:09:12;31.23;;;15.38;;
34982;SDS011;21187;50.976;13.720;2023-04-16T02:14:14;29.75;;;15.25;;
34982;SDS011;21187;50.976;13.720;2023-04-16T02:19:16;29.80;;;15.38;;
34982;SDS011;21187;50.976;13.720;2023-04-16T02:24:19;29.20;;;13.70;;
34982;SDS011;21187;50.976;13.720;2023-04-16T02:29:22;33.88;;;16.10;;
34982;SDS011;21187;50.976;13.720;2023-04-16T02:34:31;39.20;;;16.67;;
34982;SDS011;21187;50.976;13.720;2023-04-16T02:39:34;34.45;;;15.85;;
34982;SDS011;21187;50.976;13.720;2023-04-16T02:44:35;31.27;;;15.45;;
34982;SDS011;21187;50.976;13.720;2023-04-16T02:49:37;34.00;;;15.38;;
34982;SDS011;21187;50.976;13.720;2023-04-16T02:54:39;34.03;;;15.75;;
34982;SDS011;21187;50.976;13.720;2023-04-16T02:59:41;28.80;;;14.18;;
34982;SDS011;21187;50.976;13.720;2023-04-16T03:04:43;32.33;;;16.88;;
34982;SDS011;21187;50.976;13.720;2023-04-16T03:09:45;30.30;;;13.70;;
34982;SDS011;21187;50.976;13.720;2023-04-16T03:14:49;30.50;;;14.82;;
34982;SDS011;21187;50.976;13.720;2023-04-16T03:19:52;25.60;;;13.50;;
34982;SDS011;21187;50.976;13.720;2023-04-16T03:24:53;26.42;;;12.93;;
34982;SDS011;21187;50.976;13.720;2023-04-16T03:29:55;27.10;;;12.38;;
34982;SDS011;21187;50.976;13.720;2023-04-16T03:34:58;29.38;;;13.57;;
34982;SDS011;21187;50.976;13.720;2023-04-16T03:40:00;29.25;;;13.75;;
34982;SDS011;21187;50.976;13.720;2023-04-16T03:45:04;30.38;;;13.32;;
34982;SDS011;21187;50.976;13.720;2023-04-16T03:50:07;23.67;;;13.55;;
34982;SDS011;21187;50.976;13.720;2023-04-16T03:55:09;29.40;;;14.40;;
34982;SDS011;21187;50.976;13.720;2023-04-16T04:00:11;32.72;;;14.77;;
34982;SDS011;21187;50.976;13.720;2023-04-16T04:05:41;29.15;;;13.65;;
34982;SDS011;21187;50.976;13.720;2023-04-16T04:10:46;30.63;;;13.73;;
34982;SDS011;21187;50.976;13.720;2023-04-16T04:15:49;31.85;;;14.18;;
34982;SDS011;21187;50.976;13.720;2023-04-16T04:20:51;31.23;;;14.95;;
34982;SDS011;21187;50.976;13.720;2023-04-16T04:25:56;31.60;;;14.68;;
34982;SDS011;21187;50.976;13.720;2023-04-16T04:31:00;26.90;;;12.85;;
34982;SDS011;21187;50.976;13.720;2023-04-16T04:36:04;27.30;;;13.38;;
34982;SDS011;21187;50.976;13.720;2023-04-16T04:41:07;27.85;;;13.35;;
34982;SDS011;21187;50.976;13.720;2023-04-16T04:46:11;28.85;;;13.60;;
34982;SDS011;21187;50.976;13.720;2023-04-16T04:51:14;31.55;;;12.90;;
34982;SDS011;21187;50.976;13.720;2023-04-16T04:56:18;26.23;;;13.02;;
34982;SDS011;21187;50.976;13.720;2023-04-16T05:01:21;27.33;;;13.77;;
34982;SDS011;21187;50.976;13.720;2023-04-16T05:06:23;32.95;;;14.93;;
34982;SDS011;21187;50.976;13.720;2023-04-16T05:11:28;29.15;;;13.98;;
34982;SDS011;21187;50.976;13.720;2023-04-16T05:16:30;28.75;;;13.45;;
34982;SDS011;21187;50.976;13.720;2023-04-16T05:21:32;28.13;;;12.70;;
34982;SDS011;21187;50.976;13.720;2023-04-16T05:26:34;28.30;;;13.77;;
34982;SDS011;21187;50.976;13.720;2023-04-16T05:31:36;30.83;;;14.38;;
34982;SDS011;21187;50.976;13.720;2023-04-16T05:36:38;28.08;;;13.00;;
34982;SDS011;21187;50.976;13.720;2023-04-16T05:41:39;28.00;;;12.35;;
34982;SDS011;21187;50.976;13.720;2023-04-16T05:46:41;31.40;;;14.10;;
34982;SDS011;21187;50.976;13.720;2023-04-16T05:51:43;30.38;;;13.15;;
34982;SDS011;21187;50.976;13.720;2023-04-16T05:56:45;26.70;;;13.48;;
34982;SDS011;21187;50.976;13.720;2023-04-16T06:01:47;35.75;;;14.57;;
34982;SDS011;21187;50.976;13.720;2023-04-16T06:06:49;28.25;;;14.30;;
34982;SDS011;21187;50.976;13.720;2023-04-16T06:11:51;27.45;;;13.52;;
34982;SDS011;21187;50.976;13.720;2023-04-16T06:16:52;27.10;;;13.63;;
34982;SDS011;21187;50.976;13.720;2023-04-16T06:21:54;28.15;;;13.20;;
34982;SDS011;21187;50.976;13.720;2023-04-16T06:26:57;20.38;;;10.88;;
34982;SDS011;21187;50.976;13.720;2023-04-16T06:31:59;21.80;;;11.13;;
34982;SDS011;21187;50.976;13.720;2023-04-16T06:37:01;18.65;;;11.15;;
34982;SDS011;21187;50.976;13.720;2023-04-16T06:42:03;25.83;;;13.00;;
34982;SDS011;21187;50.976;13.720;2023-04-16T06:47:05;22.52;;;12.23;;
34982;SDS011;21187;50.976;13.720;2023-04-16T06:52:07;20.15;;;10.00;;
34982;SDS011;21187;50.976;13.720;2023-04-16T06:57:08;18.60;;;10.30;;
34982;SDS011;21187;50.976;13.720;2023-04-16T07:02:11;19.08;;;9.60;;
34982;SDS011;21187;50.976;13.720;2023-04-16T07:07:13;15.73;;;9.88;;
34982;SDS011;21187;50.976;13.720;2023-04-16T07:12:15;15.63;;;8.38;;
34982;SDS011;21187;50.976;13.720;2023-04-16T07:17:17;24.33;;;10.45;;
34982;SDS011;21187;50.976;13.720;2023-04-16T07:22:19;13.45;;;7.85;;
34982;SDS011;21187;50.976;13.720;2023-04-16T07:27:21;12.52;;;7.90;;
34982;SDS011;21187;50.976;13.720;2023-04-16T07:32:23;8.93;;;5.93;;
34982;SDS011;21187;50.976;13.720;2023-04-16T07:37:25;9.82;;;6.28;;
34982;SDS011;21187;50.976;13.720;2023-04-16T07:42:27;12.27;;;6.35;;
34982;SDS011;21187;50.976;13.720;2023-04-16T07:47:29;17.02;;;7.55;;
34982;SDS011;21187;50.976;13.720;2023-04-16T07:52:31;11.55;;;6.47;;
34982;SDS011;21187;50.976;13.720;2023-04-16T07:57:32;12.45;;;6.70;;
34982;SDS011;21187;50.976;13.720;2023-04-16T08:02:34;16.08;;;6.45;;
34982;SDS011;21187;50.976;13.720;2023-04-16T08:07:36;17.80;;;8.77;;
34982;SDS011;21187;50.976;13.720;2023-04-16T08:12:38;22.15;;;10.45;;
34982;SDS011;21187;50.976;13.720;2023-04-16T08:17:40;17.10;;;8.77;;
34982;SDS011;21187;50.976;13.720;2023-04-16T08:22:42;12.70;;;7.32;;
34982;SDS011;21187;50.976;13.720;2023-04-16T08:27:45;9.93;;;4.75;;
34982;SDS011;21187;50.976;13.720;2023-04-16T08:32:46;13.45;;;6.55;;
34982;SDS011;21187;50.976;13.720;2023-04-16T08:37:50;8.88;;;5.35;;
34982;SDS011;21187;50.976;13.720;2023-04-16T08:42:52;9.75;;;5.53;;
34982;SDS011;21187;50.976;13.720;2023-04-16T08:47:56;8.73;;;4.93;;
34982;SDS011;21187;50.976;13.720;2023-04-16T08:52:59;13.85;;;7.30;;
34982;SDS011;21187;50.976;13.720;2023-04-16T09:03:16;15.32;;;5.88;;
34982;SDS011;21187;50.976;13.720;2023-04-16T09:08:20;11.20;;;6.50;;
34982;SDS011;21187;50.976;13.720;2023-04-16T09:13:22;10.57;;;5.22;;
34982;SDS011;21187;50.976;13.720;2023-04-16T09:18:25;12.50;;;6.00;;
34982;SDS011;21187;50.976;13.720;2023-04-16T09:23:29;12.57;;;7.45;;
34982;SDS011;21187;50.976;13.720;2023-04-16T09:28:37;16.08;;;8.10;;
34982;SDS011;21187;50.976;13.720;2023-04-16T09:33:59;16.95;;;8.82;;
34982;SDS011;21187;50.976;13.720;2023-04-16T09:39:02;13.40;;;7.53;;
34982;SDS011;21187;50.976;13.720;2023-04-16T09:44:04;11.07;;;7.03;;
34982;SDS011;21187;50.976;13.720;2023-04-16T09:49:13;13.95;;;7.55;;
34982;SDS011;21187;50.976;13.720;2023-04-16T09:54:16;12.10;;;7.05;;
34982;SDS011;21187;50.976;13.720;2023-04-16T09:59:21;13.00;;;8.57;;
34982;SDS011;21187;50.976;13.720;2023-04-16T10:04:24;15.45;;;8.52;;
34982;SDS011;21187;50.976;13.720;2023-04-16T10:09:27;15.90;;;8.25;;
34982;SDS011;21187;50.976;13.720;2023-04-16T10:14:32;14.10;;;8.45;;
34982;SDS011;21187;50.976;13.720;2023-04-16T10:19:35;15.55;;;9.13;;
34982;SDS011;21187;50.976;13.720;2023-04-16T10:24:37;14.52;;;7.93;;
34982;SDS011;21187;50.976;13.720;2023-04-16T10:29:41;14.48;;;8.30;;
34982;SDS011;21187;50.976;13.720;2023-04-16T10:34:44;19.48;;;9.63;;
34982;SDS011;21187;50.976;13.720;2023-04-16T10:39:47;17.63;;;9.25;;
34982;SDS011;21187;50.976;13.720;2023-04-16T10:44:50;16.83;;;8.85;;
34982;SDS011;21187;50.976;13.720;2023-04-16T10:49:51;15.20;;;8.65;;
34982;SDS011;21187;50.976;13.720;2023-04-16T10:54:53;11.57;;;7.03;;
34982;SDS011;21187;50.976;13.720;2023-04-16T10:59:56;10.98;;;6.78;;
34982;SDS011;21187;50.976;13.720;2023-04-16T11:05:00;12.23;;;7.55;;
34982;SDS011;21187;50.976;13.720;2023-04-16T11:10:02;13.35;;;6.88;;
34982;SDS011;21187;50.976;13.720;2023-04-16T11:15:08;10.77;;;6.20;;
34982;SDS011;21187;50.976;13.720;2023-04-16T11:25:34;9.90;;;6.97;;
34982;SDS011;21187;50.976;13.720;2023-04-16T11:30:37;11.52;;;6.45;;
34982;SDS011;21187;50.976;13.720;2023-04-16T11:35:39;11.20;;;6.30;;
34982;SDS011;21187;50.976;13.720;2023-04-16T11:40:41;10.60;;;6.10;;
34982;SDS011;21187;50.976;13.720;2023-04-16T11:51:28;10.88;;;6.57;;
34982;SDS011;21187;50.976;13.720;2023-04-16T11:56:32;10.95;;;6.20;;
34982;SDS011;21187;50.976;13.720;2023-04-16T12:01:36;11.07;;;6.00;;
34982;SDS011;21187;50.976;13.720;2023-04-16T12:06:39;7.70;;;4.63;;
34982;SDS011;21187;50.976;13.720;2023-04-16T12:11:42;12.27;;;4.57;;
34982;SDS011;21187;50.976;13.720;2023-04-16T12:16:44;10.65;;;4.60;;
34982;SDS011;21187;50.976;13.720;2023-04-16T12:21:46;8.48;;;4.97;;
34982;SDS011;21187;50.976;13.720;2023-04-16T12:26:53;6.55;;;4.35;;
34982;SDS011;21187;50.976;13.720;2023-04-16T12:32:03;5.63;;;3.67;;
34982;SDS011;21187;50.976;13.720;2023-04-16T12:37:06;6.88;;;4.00;;
34982;SDS011;21187;50.976;13.720;2023-04-16T12:42:11;6.25;;;3.60;;
34982;SDS011;21187;50.976;13.720;2023-04-16T12:47:13;7.28;;;3.65;;
34982;SDS011;21187;50.976;13.720;2023-04-16T12:52:15;6.30;;;3.80;;
34982;SDS011;21187;50.976;13.720;2023-04-16T12:57:16;8.02;;;4.03;;
34982;SDS011;21187;50.976;13.720;2023-04-16T13:02:18;6.10;;;3.70;;
34982;SDS011;21187;50.976;13.720;2023-04-16T13:07:20;5.07;;;3.88;;
34982;SDS011;21187;50.976;13.720;2023-04-16T13:12:22;7.80;;;4.05;;
34982;SDS011;21187;50.976;13.720;2023-04-16T13:17:24;6.15;;;3.72;;
34982;SDS011;21187;50.976;13.720;2023-04-16T13:22:26;5.45;;;3.50;;
34982;SDS011;21187;50.976;13.720;2023-04-16T13:27:28;5.55;;;3.65;;
34982;SDS011;21187;50.976;13.720;2023-04-16T13:32:32;6.00;;;3.63;;
34982;SDS011;21187;50.976;13.720;2023-04-16T13:37:34;6.65;;;3.80;;
34982;SDS011;21187;50.976;13.720;2023-04-16T13:42:36;6.55;;;4.00;;
34982;SDS011;21187;50.976;13.720;2023-04-16T13:47:41;6.85;;;3.97;;
34982;SDS011;21187;50.976;13.720;2023-04-16T13:52:44;9.82;;;5.25;;
34982;SDS011;21187;50.976;13.720;2023-04-16T13:57:45;7.43;;;5.15;;
34982;SDS011;21187;50.976;13.720;2023-04-16T14:02:48;6.50;;;4.38;;
34982;SDS011;21187;50.976;13.720;2023-04-16T14:07:50;9.02;;;4.95;;
34982;SDS011;21187;50.976;13.720;2023-04-16T14:12:52;8.45;;;5.18;;
34982;SDS011;21187;50.976;13.720;2023-04-16T14:17:54;8.35;;;5.38;;
34982;SDS011;21187;50.976;13.720;2023-04-16T14:22:57;11.60;;;6.43;;
34982;SDS011;21187;50.976;13.720;2023-04-16T14:27:59;8.63;;;5.57;;
34982;SDS011;21187;50.976;13.720;2023-04-16T14:33:03;9.70;;;5.65;;
34982;SDS011;21187;50.976;13.720;2023-04-16T14:38:06;9.10;;;5.38;;
34982;SDS011;21187;50.976;13.720;2023-04-16T14:43:08;8.57;;;5.32;;
34982;SDS011;21187;50.976;13.720;2023-04-16T14:48:09;9.40;;;5.53;;
34982;SDS011;21187;50.976;13.720;2023-04-16T14:53:11;9.48;;;5.50;;
34982;SDS011;21187;50.976;13.720;2023-04-16T14:58:14;8.68;;;5.22;;
34982;SDS011;21187;50.976;13.720;2023-04-16T15:03:16;9.05;;;4.97;;
34982;SDS011;21187;50.976;13.720;2023-04-16T15:08:18;10.00;;;5.35;;
34982;SDS011;21187;50.976;13.720;2023-04-16T15:13:20;12.40;;;5.30;;
34982;SDS011;21187;50.976;13.720;2023-04-16T15:18:21;10.23;;;5.07;;
34982;SDS011;21187;50.976;13.720;2023-04-16T15:23:23;9.68;;;6.00;;
34982;SDS011;21187;50.976;13.720;2023-04-16T15:28:25;13.95;;;6.32;;
34982;SDS011;21187;50.976;13.720;2023-04-16T15:33:27;10.32;;;4.18;;
34982;SDS011;21187;50.976;13.720;2023-04-16T15:38:29;8.65;;;4.00;;
34982;SDS011;21187;50.976;13.720;2023-04-16T15:43:31;5.97;;;3.78;;
34982;SDS011;21187;50.976;13.720;2023-04-16T15:48:33;5.47;;;3.38;;
34982;SDS011;21187;50.976;13.720;2023-04-16T15:53:35;5.13;;;2.88;;
34982;SDS011;21187;50.976;13.720;2023-04-16T15:58:36;6.68;;;3.65;;
34982;SDS011;21187;50.976;13.720;2023-04-16T16:03:38;4.32;;;2.58;;
34982;SDS011;21187;50.976;13.720;2023-04-16T16:08:40;4.90;;;3.05;;
34982;SDS011;21187;50.976;13.720;2023-04-16T16:13:42;6.95;;;3.78;;
34982;SDS011;21187;50.976;13.720;2023-04-16T16:18:44;8.25;;;3.85;;
34982;SDS011;21187;50.976;13.720;2023-04-16T16:23:46;10.55;;;4.10;;
34982;SDS011;21187;50.976;13.720;2023-04-16T16:28:48;7.18;;;4.07;;
34982;SDS011;21187;50.976;13.720;2023-04-16T16:33:50;7.13;;;3.83;;
34982;SDS011;21187;50.976;13.720;2023-04-16T16:38:52;7.38;;;3.83;;
34982;SDS011;21187;50.976;13.720;2023-04-16T16:43:55;6.72;;;4.45;;
34982;SDS011;21187;50.976;13.720;2023-04-16T16:48:59;8.63;;;3.80;;
34982;SDS011;21187;50.976;13.720;2023-04-16T16:54:01;7.00;;;4.20;;
34982;SDS011;21187;50.976;13.720;2023-04-16T16:59:04;6.65;;;4.22;;
34982;SDS011;21187;50.976;13.720;2023-04-16T17:04:06;9.95;;;4.28;;
34982;SDS011;21187;50.976;13.720;2023-04-16T17:09:08;6.93;;;3.95;;
34982;SDS011;21187;50.976;13.720;2023-04-16T17:14:11;6.80;;;3.65;;
34982;SDS011;21187;50.976;13.720;2023-04-16T17:19:14;8.43;;;3.75;;
34982;SDS011;21187;50.976;13.720;2023-04-16T17:24:18;5.45;;;3.50;;
34982;SDS011;21187;50.976;13.720;2023-04-16T17:29:20;5.50;;;3.53;;
34982;SDS011;21187;50.976;13.720;2023-04-16T17:34:26;7.57;;;4.72;;
34982;SDS011;21187;50.976;13.720;2023-04-16T17:39:28;10.07;;;5.22;;
34982;SDS011;21187;50.976;13.720;2023-04-16T17:44:30;19.20;;;9.10;;
34982;SDS011;21187;50.976;13.720;2023-04-16T17:49:32;13.98;;;6.55;;
34982;SDS011;21187;50.976;13.720;2023-04-16T17:54:34;18.77;;;7.40;;
34982;SDS011;21187;50.976;13.720;2023-04-16T17:59:36;32.20;;;11.73;;
34982;SDS011;21187;50.976;13.720;2023-04-16T18:04:38;23.00;;;10.88;;
34982;SDS011;21187;50.976;13.720;2023-04-16T18:09:40;16.17;;;8.05;;
34982;SDS011;21187;50.976;13.720;2023-04-16T18:14:42;20.60;;;9.77;;
34982;SDS011;21187;50.976;13.720;2023-04-16T18:19:45;22.73;;;12.20;;
34982;SDS011;21187;50.976;13.720;2023-04-16T18:24:47;26.63;;;13.32;;
34982;SDS011;21187;50.976;13.720;2023-04-16T18:29:49;24.45;;;13.63;;
34982;SDS011;21187;50.976;13.720;2023-04-16T18:34:51;26.13;;;12.82;;
34982;SDS011;21187;50.976;13.720;2023-04-16T18:39:54;26.08;;;13.07;;
34982;SDS011;21187;50.976;13.720;2023-04-16T18:44:58;24.30;;;11.15;;
34982;SDS011;21187;50.976;13.720;2023-04-16T18:50:00;24.83;;;11.88;;
34982;SDS011;21187;50.976;13.720;2023-04-16T18:55:02;25.95;;;12.52;;
34982;SDS011;21187;50.976;13.720;2023-04-16T19:00:04;18.98;;;9.07;;
34982;SDS011;21187;50.976;13.720;2023-04-16T19:05:13;24.88;;;13.60;;
34982;SDS011;21187;50.976;13.720;2023-04-16T19:10:14;25.90;;;14.73;;
34982;SDS011;21187;50.976;13.720;2023-04-16T19:15:17;15.60;;;8.98;;
34982;SDS011;21187;50.976;13.720;2023-04-16T19:20:19;14.77;;;8.32;;
34982;SDS011;21187;50.976;13.720;2023-04-16T19:25:21;13.18;;;7.40;;
34982;SDS011;21187;50.976;13.720;2023-04-16T19:30:23;12.73;;;7.20;;
34982;SDS011;21187;50.976;13.720;2023-04-16T19:35:26;14.00;;;7.88;;
34982;SDS011;21187;50.976;13.720;2023-04-16T19:40:28;7.78;;;5.15;;
34982;SDS011;21187;50.976;13.720;2023-04-16T19:45:30;13.30;;;7.25;;
34982;SDS011;21187;50.976;13.720;2023-04-16T19:50:32;8.77;;;4.63;;
34982;SDS011;21187;50.976;13.720;2023-04-16T19:55:34;5.38;;;3.33;;
34982;SDS011;21187;50.976;13.720;2023-04-16T20:00:36;8.65;;;4.22;;
34982;SDS011;21187;50.976;13.720;2023-04-16T20:05:41;7.90;;;3.65;;
34982;SDS011;21187;50.976;13.720;2023-04-16T20:10:43;6.22;;;3.55;;
34982;SDS011;21187;50.976;13.720;2023-04-16T20:15:44;8.18;;;4.88;;
34982;SDS011;21187;50.976;13.720;2023-04-16T20:20:48;5.80;;;3.35;;
34982;SDS011;21187;50.976;13.720;2023-04-16T20:25:51;8.20;;;6.43;;
34982;SDS011;21187;50.976;13.720;2023-04-16T20:30:53;5.13;;;3.67;;
34982;SDS011;21187;50.976;13.720;2023-04-16T20:35:55;7.50;;;4.60;;
34982;SDS011;21187;50.976;13.720;2023-04-16T20:40:57;7.82;;;5.70;;
34982;SDS011;21187;50.976;13.720;2023-04-16T20:46:11;7.88;;;4.13;;
34982;SDS011;21187;50.976;13.720;2023-04-16T20:51:13;8.40;;;4.47;;
34982;SDS011;21187;50.976;13.720;2023-04-16T20:56:15;7.05;;;4.82;;
34982;SDS011;21187;50.976;13.720;2023-04-16T21:01:17;8.05;;;4.57;;
34982;SDS011;21187;50.976;13.720;2023-04-16T21:06:21;8.52;;;4.80;;
34982;SDS011;21187;50.976;13.720;2023-04-16T21:11:23;10.25;;;5.18;;
34982;SDS011;21187;50.976;13.720;2023-04-16T21:16:24;8.32;;;5.15;;
34982;SDS011;21187;50.976;13.720;2023-04-16T21:21:26;10.90;;;5.53;;
34982;SDS011;21187;50.976;13.720;2023-04-16T21:26:28;8.90;;;5.28;;
34982;SDS011;21187;50.976;13.720;2023-04-16T21:31:30;7.60;;;4.40;;
34982;SDS011;21187;50.976;13.720;2023-04-16T21:36:32;6.65;;;3.78;;
34982;SDS011;21187;50.976;13.720;2023-04-16T21:41:34;5.07;;;2.97;;
34982;SDS011;21187;50.976;13.720;2023-04-16T21:46:36;5.88;;;3.80;;
34982;SDS011;21187;50.976;13.720;2023-04-16T21:51:38;8.55;;;4.03;;
34982;SDS011;21187;50.976;13.720;2023-04-16T21:56:41;10.40;;;5.63;;
34982;SDS011;21187;50.976;13.720;2023-04-16T22:01:42;9.82;;;6.00;;
34982;SDS011;21187;50.976;13.720;2023-04-16T22:06:44;12.48;;;7.10;;
34982;SDS011;21187;50.976;13.720;2023-04-16T22:11:46;13.20;;;7.30;;
34982;SDS011;21187;50.976;13.720;2023-04-16T22:16:48;13.40;;;7.63;;
34982;SDS011;21187;50.976;13.720;2023-04-16T22:21:52;15.70;;;7.80;;
34982;SDS011;21187;50.976;13.720;2023-04-16T22:26:54;13.38;;;7.60;;
34982;SDS011;21187;50.976;13.720;2023-04-16T22:31:57;18.05;;;8.05;;
34982;SDS011;21187;50.976;13.720;2023-04-16T22:37:01;14.73;;;8.50;;
34982;SDS011;21187;50.976;13.720;2023-04-16T22:42:03;14.98;;;8.50;;
34982;SDS011;21187;50.976;13.720;2023-04-16T22:47:05;14.13;;;7.40;;
34982;SDS011;21187;50.976;13.720;2023-04-16T22:52:07;15.85;;;7.65;;
34982;SDS011;21187;50.976;13.720;2023-04-16T22:57:09;13.02;;;7.25;;
34982;SDS011;21187;50.976;13.720;2023-04-16T23:02:11;15.45;;;7.57;;
34982;SDS011;21187;50.976;13.720;2023-04-16T23:07:13;13.65;;;7.35;;
34982;SDS011;21187;50.976;13.720;2023-04-16T23:12:15;18.23;;;8.30;;
34982;SDS011;21187;50.976;13.720;2023-04-16T23:17:18;17.33;;;8.10;;
34982;SDS011;21187;50.976;13.720;2023-04-16T23:22:19;19.73;;;9.05;;
34982;SDS011;21187;50.976;13.720;2023-04-16T23:27:21;19.10;;;8.48;;
34982;SDS011;21187;50.976;13.720;2023-04-16T23:32:23;15.50;;;7.85;;
34982;SDS011;21187;50.976;13.720;2023-04-16T23:37:25;15.30;;;8.43;;
34982;SDS011;21187;50.976;13.720;2023-04-16T23:42:27;16.60;;;8.38;;
34982;SDS011;21187;50.976;13.720;2023-04-16T23:47:29;15.90;;;8.60;;
34982;SDS011;21187;50.976;13.720;2023-04-16T23:52:30;15.88;;;8.73;;
34982;SDS011;21187;50.976;13.720;2023-04-16T23:57:32;17.75;;;8.63;;
